Time;durP1;ratioP1;P1;durP2;ratioP2;P2;SDS_P1;SDS_P2;PMS_P1;PMS_P2;Temp;Humidity;BMP_temperature;BMP_pressure;BME280_temperature;BME280_humidity;BME280_pressure;Samples;Min_cycle;Max_cycle;Signal;HPM_P1;HPM_P2
2023/08/28 00:06:31;;;;;;;4.88;2.00;;;;;;;;;;5013113;28;21336;-81
2023/08/28 00:08:57;;;;;;;2.78;2.17;;;;;;;;;;5014252;28;20133;-82
2023/08/28 00:11:27;;;;;;;3.08;2.05;;;;;;;;;;5012548;28;20053;-81
2023/08/28 00:13:53;;;;;;;7.30;2.50;;;;;;;;;;5018335;28;20043;-81
2023/08/28 00:16:20;;;;;;;5.05;1.92;;;;;;;;;;5022531;28;20076;-82
2023/08/28 00:18:47;;;;;;;4.05;2.33;;;;;;;;;;5016630;28;20386;-82
2023/08/28 00:21:14;;;;;;;5.22;2.42;;;;;;;;;;5006298;28;21177;-82
2023/08/28 00:23:40;;;;;;;4.88;2.28;;;;;;;;;;5024509;28;20041;-82
2023/08/28 00:26:07;;;;;;;3.03;1.85;;;;;;;;;;5015734;28;20042;-84
2023/08/28 00:28:34;;;;;;;4.25;2.42;;;;;;;;;;4986919;28;20113;-83
2023/08/28 00:31:02;;;;;;;3.58;2.00;;;;;;;;;;5004198;28;20050;-80
2023/08/28 00:33:29;;;;;;;2.72;1.80;;;;;;;;;;4999124;28;20498;-82
2023/08/28 00:35:56;;;;;;;3.63;2.00;;;;;;;;;;4990976;28;20466;-83
2023/08/28 00:38:23;;;;;;;4.40;2.05;;;;;;;;;;5005137;28;20177;-84
2023/08/28 00:40:49;;;;;;;3.15;2.00;;;;;;;;;;4999114;28;20042;-84
2023/08/28 00:43:22;;;;;;;5.35;2.03;;;;;;;;;;4995520;28;20126;-82
2023/08/28 00:45:49;;;;;;;4.28;1.90;;;;;;;;;;5002560;28;20042;-84
2023/08/28 00:48:17;;;;;;;3.30;1.90;;;;;;;;;;4995073;28;20537;-82
2023/08/28 00:50:44;;;;;;;3.60;2.35;;;;;;;;;;5016920;28;20056;-82
2023/08/28 00:53:13;;;;;;;3.72;2.03;;;;;;;;;;5023236;28;20111;-82
2023/08/28 00:55:46;;;;;;;3.20;2.17;;;;;;;;;;4992456;28;20073;-83
2023/08/28 00:58:13;;;;;;;2.90;2.00;;;;;;;;;;4999128;28;20050;-83
2023/08/28 01:00:40;;;;;;;4.75;2.03;;;;;;;;;;5005300;28;20092;-82
2023/08/28 01:03:07;;;;;;;3.95;2.30;;;;;;;;;;5002930;28;20073;-83
2023/08/28 01:05:52;;;;;;;4.38;2.35;;;;;;;;;;4984372;28;20068;-83
2023/08/28 01:08:26;;;;;;;4.10;2.17;;;;;;;;;;4996796;28;20073;-83
2023/08/28 01:10:56;;;;;;;3.20;1.95;;;;;;;;;;5023210;28;20049;-84
2023/08/28 01:13:38;;;;;;;4.00;2.53;;;;;;;;;;5004970;28;20053;-82
2023/08/28 01:16:05;;;;;;;6.43;2.40;;;;;;;;;;5005264;28;20072;-83
2023/08/28 01:18:33;;;;;;;7.63;2.20;;;;;;;;;;4986034;28;20329;-81
2023/08/28 01:21:00;;;;;;;3.33;2.17;;;;;;;;;;4990357;28;20066;-82
2023/08/28 01:23:37;;;;;;;6.63;2.85;;;;;;;;;;4993927;28;20046;-83
2023/08/28 01:26:05;;;;;;;2.90;2.03;;;;;;;;;;4984946;28;20533;-84
2023/08/28 01:28:31;;;;;;;4.10;2.30;;;;;;;;;;4971124;28;20068;-85
2023/08/28 01:30:58;;;;;;;3.78;2.00;;;;;;;;;;5019755;28;20134;-82
2023/08/28 01:33:25;;;;;;;3.55;2.20;;;;;;;;;;5001791;28;20121;-81
2023/08/28 01:35:56;;;;;;;4.10;2.20;;;;;;;;;;4995856;28;20597;-84
2023/08/28 01:38:29;;;;;;;3.53;2.22;;;;;;;;;;5003382;28;20620;-82
2023/08/28 01:41:03;;;;;;;7.57;2.17;;;;;;;;;;5021399;28;20045;-84
2023/08/28 01:43:34;;;;;;;2.10;1.50;;;;;;;;;;4979588;28;20081;-82
2023/08/28 01:46:02;;;;;;;3.13;1.90;;;;;;;;;;4988995;28;20050;-84
2023/08/28 01:48:35;;;;;;;3.30;2.10;;;;;;;;;;5000544;28;20046;-81
2023/08/28 01:51:02;;;;;;;4.75;2.00;;;;;;;;;;5015377;28;20053;-81
2023/08/28 01:53:29;;;;;;;2.78;2.00;;;;;;;;;;4968290;28;20058;-80
2023/08/28 01:55:59;;;;;;;2.50;2.03;;;;;;;;;;4975480;28;20057;-81
2023/08/28 01:58:26;;;;;;;4.35;2.00;;;;;;;;;;5004922;28;20179;-83
2023/08/28 02:00:53;;;;;;;4.20;1.88;;;;;;;;;;5032730;28;20073;-83
2023/08/28 02:03:20;;;;;;;3.03;2.13;;;;;;;;;;4997500;28;20629;-82
2023/08/28 02:05:46;;;;;;;5.13;2.35;;;;;;;;;;4995262;28;20053;-83
2023/08/28 02:08:15;;;;;;;5.60;2.25;;;;;;;;;;4993885;28;20493;-82
2023/08/28 02:10:45;;;;;;;4.65;2.40;;;;;;;;;;4987428;28;20050;-82
2023/08/28 02:13:12;;;;;;;4.05;2.22;;;;;;;;;;4994536;28;20077;-81
2023/08/28 02:15:39;;;;;;;2.70;2.00;;;;;;;;;;4985606;28;20053;-83
2023/08/28 02:18:06;;;;;;;3.90;2.00;;;;;;;;;;4989057;28;20068;-82
2023/08/28 02:20:32;;;;;;;3.55;2.30;;;;;;;;;;4993959;28;20050;-79
2023/08/28 02:22:59;;;;;;;3.53;2.00;;;;;;;;;;4984638;28;20041;-80
2023/08/28 02:25:26;;;;;;;3.78;2.20;;;;;;;;;;4994190;28;20061;-80
2023/08/28 02:27:53;;;;;;;3.08;2.00;;;;;;;;;;4984449;28;20039;-81
2023/08/28 02:30:23;;;;;;;2.70;2.00;;;;;;;;;;4975260;28;20049;-82
2023/08/28 02:32:52;;;;;;;3.05;2.10;;;;;;;;;;4984990;28;20042;-81
2023/08/28 02:35:21;;;;;;;3.70;2.15;;;;;;;;;;4987281;28;20098;-82
2023/08/28 02:37:47;;;;;;;3.70;2.10;;;;;;;;;;5000689;28;20372;-80
2023/08/28 02:40:16;;;;;;;3.22;2.30;;;;;;;;;;5005655;28;20118;-82
2023/08/28 02:42:43;;;;;;;3.03;2.10;;;;;;;;;;4987439;28;20046;-81
2023/08/28 02:45:10;;;;;;;3.95;2.30;;;;;;;;;;4980936;28;20042;-79
2023/08/28 02:47:36;;;;;;;4.20;2.20;;;;;;;;;;4980769;28;20054;-83
2023/08/28 02:50:06;;;;;;;4.25;1.77;;;;;;;;;;4998763;28;20043;-80
2023/08/28 02:52:33;;;;;;;7.88;2.55;;;;;;;;;;4988571;28;20054;-82
2023/08/28 02:55:00;;;;;;;5.43;2.22;;;;;;;;;;4977691;28;20053;-81
2023/08/28 02:57:26;;;;;;;6.00;2.10;;;;;;;;;;4980230;28;20098;-79
2023/08/28 02:59:53;;;;;;;5.30;2.30;;;;;;;;;;4979062;28;20067;-83
2023/08/28 03:02:20;;;;;;;3.88;2.50;;;;;;;;;;4987684;28;20097;-81
2023/08/28 03:04:46;;;;;;;4.05;2.30;;;;;;;;;;4978998;28;20141;-80
2023/08/28 03:07:13;;;;;;;5.05;2.33;;;;;;;;;;5020125;28;20056;-83
2023/08/28 03:09:42;;;;;;;3.75;2.20;;;;;;;;;;5012574;28;20046;-79
2023/08/28 03:12:11;;;;;;;4.10;2.50;;;;;;;;;;4988008;28;20038;-83
2023/08/28 03:14:39;;;;;;;4.63;2.05;;;;;;;;;;4989451;28;20042;-80
2023/08/28 03:17:05;;;;;;;4.10;2.40;;;;;;;;;;4981347;28;20100;-81
2023/08/28 03:19:32;;;;;;;3.47;2.13;;;;;;;;;;4982208;28;20110;-83
2023/08/28 03:21:59;;;;;;;3.83;2.30;;;;;;;;;;4996981;28;20417;-85
2023/08/28 03:24:26;;;;;;;4.53;2.03;;;;;;;;;;4983431;28;20046;-83
2023/08/28 03:26:52;;;;;;;4.30;2.22;;;;;;;;;;4985135;28;20061;-81
2023/08/28 03:29:19;;;;;;;5.85;2.45;;;;;;;;;;4992147;28;20053;-82
2023/08/28 03:31:46;;;;;;;4.22;2.17;;;;;;;;;;5009001;28;20049;-83
2023/08/28 03:34:13;;;;;;;4.40;2.38;;;;;;;;;;4981139;28;20050;-82
2023/08/28 03:36:39;;;;;;;7.53;2.08;;;;;;;;;;4993232;28;20054;-84
2023/08/28 03:39:06;;;;;;;5.18;2.35;;;;;;;;;;4985235;28;20053;-81
2023/08/28 03:41:38;;;;;;;3.63;2.00;;;;;;;;;;4994040;28;20053;-82
2023/08/28 03:44:04;;;;;;;4.40;2.00;;;;;;;;;;4991051;28;20069;-82
2023/08/28 03:46:33;;;;;;;2.80;1.98;;;;;;;;;;5011432;28;20523;-81
2023/08/28 03:49:06;;;;;;;3.25;1.92;;;;;;;;;;5014046;28;20061;-81
2023/08/28 03:51:32;;;;;;;3.70;2.05;;;;;;;;;;5004173;28;20131;-80
2023/08/28 03:54:00;;;;;;;4.70;2.10;;;;;;;;;;4992751;28;20046;-82
2023/08/28 03:56:29;;;;;;;3.38;2.22;;;;;;;;;;5003040;28;20038;-83
2023/08/28 03:58:56;;;;;;;3.25;1.92;;;;;;;;;;5020980;28;20038;-82
2023/08/28 04:01:22;;;;;;;3.65;2.42;;;;;;;;;;5017275;28;20034;-82
2023/08/28 04:03:49;;;;;;;2.47;1.80;;;;;;;;;;5000967;28;20068;-80
2023/08/28 04:06:16;;;;;;;5.15;2.10;;;;;;;;;;5011511;28;20037;-84
2023/08/28 04:08:43;;;;;;;3.83;2.15;;;;;;;;;;5005989;28;20533;-82
2023/08/28 04:11:12;;;;;;;6.55;2.38;;;;;;;;;;4999439;28;20046;-83
2023/08/28 04:13:39;;;;;;;4.97;2.80;;;;;;;;;;5012973;28;20042;-81
2023/08/28 04:16:05;;;;;;;3.13;2.13;;;;;;;;;;4987557;28;20077;-81
2023/08/28 04:18:32;;;;;;;3.75;2.25;;;;;;;;;;4982510;28;20050;-82
2023/08/28 04:21:03;;;;;;;4.18;2.42;;;;;;;;;;4978817;28;20042;-80
2023/08/28 04:23:29;;;;;;;4.57;2.30;;;;;;;;;;4991135;28;20076;-80
2023/08/28 04:26:00;;;;;;;2.72;2.03;;;;;;;;;;4985024;28;20395;-81
2023/08/28 04:28:29;;;;;;;6.43;2.50;;;;;;;;;;4991668;28;20046;-83
2023/08/28 04:30:56;;;;;;;3.50;2.20;;;;;;;;;;4985351;28;20445;-82
2023/08/28 04:33:24;;;;;;;4.00;2.00;;;;;;;;;;4981688;28;20054;-83
2023/08/28 04:35:51;;;;;;;4.93;2.20;;;;;;;;;;4982295;28;20038;-82
2023/08/28 04:38:17;;;;;;;4.13;2.10;;;;;;;;;;4991262;28;20503;-81
2023/08/28 04:40:45;;;;;;;4.03;2.00;;;;;;;;;;4988304;28;20042;-83
2023/08/28 04:43:11;;;;;;;5.80;2.55;;;;;;;;;;4981294;28;20092;-83
2023/08/28 04:45:38;;;;;;;6.50;2.47;;;;;;;;;;4985062;28;20046;-83
2023/08/28 04:48:05;;;;;;;4.35;2.50;;;;;;;;;;4965717;28;20070;-82
2023/08/28 04:50:32;;;;;;;4.75;2.28;;;;;;;;;;5005750;28;20114;-84
2023/08/28 04:52:58;;;;;;;5.95;2.22;;;;;;;;;;5008213;28;20046;-83
2023/08/28 04:55:25;;;;;;;3.03;1.90;;;;;;;;;;4994142;28;20498;-83
2023/08/28 04:57:55;;;;;;;4.30;2.10;;;;;;;;;;4989313;28;20042;-83
2023/08/28 05:00:21;;;;;;;3.65;2.20;;;;;;;;;;4995488;28;20106;-82
2023/08/28 05:02:48;;;;;;;4.38;2.10;;;;;;;;;;4989569;28;20038;-83
2023/08/28 05:05:19;;;;;;;6.07;2.40;;;;;;;;;;5008269;28;20495;-84
2023/08/28 05:07:45;;;;;;;3.83;2.08;;;;;;;;;;4996737;28;20038;-82
2023/08/28 05:10:12;;;;;;;4.53;2.03;;;;;;;;;;5005724;28;20034;-84
2023/08/28 05:12:38;;;;;;;2.95;1.95;;;;;;;;;;4997649;28;20050;-84
2023/08/28 05:15:05;;;;;;;6.80;2.72;;;;;;;;;;5005328;28;20049;-85
2023/08/28 05:17:35;;;;;;;5.80;2.17;;;;;;;;;;4986348;28;20038;-82
2023/08/28 05:20:03;;;;;;;3.83;1.92;;;;;;;;;;5001454;28;20066;-85
2023/08/28 05:22:30;;;;;;;3.63;1.90;;;;;;;;;;4984542;28;20057;-82
2023/08/28 05:24:56;;;;;;;3.28;2.00;;;;;;;;;;4984988;28;20108;-81
2023/08/28 05:27:23;;;;;;;3.47;2.00;;;;;;;;;;4987794;28;20045;-84
2023/08/28 05:29:51;;;;;;;7.63;1.83;;;;;;;;;;5004421;28;20045;-84
2023/08/28 05:32:17;;;;;;;3.47;2.08;;;;;;;;;;4988470;28;20073;-82
2023/08/28 05:34:44;;;;;;;4.47;1.90;;;;;;;;;;4987730;28;20478;-84
2023/08/28 05:37:11;;;;;;;4.93;1.92;;;;;;;;;;4985497;28;20058;-82
2023/08/28 05:39:38;;;;;;;2.60;1.63;;;;;;;;;;5003920;28;20683;-83
2023/08/28 05:42:04;;;;;;;3.85;2.00;;;;;;;;;;5000980;28;20058;-81
2023/08/28 05:44:31;;;;;;;3.35;1.98;;;;;;;;;;4985071;28;20038;-82
2023/08/28 05:46:58;;;;;;;4.45;2.33;;;;;;;;;;4999460;28;20065;-84
2023/08/28 05:49:25;;;;;;;3.08;2.25;;;;;;;;;;4985722;28;20042;-84
2023/08/28 05:51:51;;;;;;;3.33;2.33;;;;;;;;;;4987579;28;20069;-83
2023/08/28 05:54:18;;;;;;;4.13;1.88;;;;;;;;;;5001542;28;20046;-82
2023/08/28 05:56:44;;;;;;;3.88;2.25;;;;;;;;;;5001432;28;20057;-83
2023/08/28 05:59:11;;;;;;;6.35;2.00;;;;;;;;;;4985098;28;20081;-84
2023/08/28 06:01:38;;;;;;;4.65;2.13;;;;;;;;;;4984071;28;20061;-82
2023/08/28 06:04:05;;;;;;;4.00;2.50;;;;;;;;;;4985722;28;20038;-84
2023/08/28 06:06:32;;;;;;;4.05;2.17;;;;;;;;;;4999653;28;20092;-83
2023/08/28 06:09:03;;;;;;;5.95;2.35;;;;;;;;;;4998453;28;20529;-83
2023/08/28 06:11:30;;;;;;;3.05;2.20;;;;;;;;;;5016056;28;20053;-84
2023/08/28 06:13:58;;;;;;;4.95;2.20;;;;;;;;;;5001672;28;20050;-83
2023/08/28 06:16:25;;;;;;;3.40;1.90;;;;;;;;;;4999698;28;20072;-81
2023/08/28 06:18:52;;;;;;;3.75;2.55;;;;;;;;;;5009768;28;20116;-82
2023/08/28 06:21:21;;;;;;;5.05;2.50;;;;;;;;;;4991043;28;20038;-83
2023/08/28 06:24:50;;;;;;;5.03;2.38;;;;;;;;;;4946111;28;20553;-82
2023/08/28 06:28:31;;;;;;;4.40;2.20;;;;;;;;;;4983718;28;20060;-83
2023/08/28 06:31:32;;;;;;;6.00;2.80;;;;;;;;;;4963654;28;20178;-81
2023/08/28 06:35:18;;;;;;;4.00;2.42;;;;;;;;;;4926759;28;20126;-84
2023/08/28 06:38:23;;;;;;;4.50;2.67;;;;;;;;;;4934041;28;20556;-82
2023/08/28 06:41:52;;;;;;;;;;;;;;;;;;;;;
2023/08/28 06:45:37;;;;;;;5.15;2.13;;;;;;;;;;4904801;28;20204;-84
2023/08/28 06:48:53;;;;;;;4.85;2.47;;;;;;;;;;4905287;28;20056;-83
2023/08/28 06:51:23;;;;;;;10.98;2.20;;;;;;;;;;4911294;28;20106;-84
2023/08/28 06:53:50;;;;;;;5.03;2.50;;;;;;;;;;4896571;28;20055;-82
2023/08/28 06:56:20;;;;;;;4.60;2.60;;;;;;;;;;4964110;28;20065;-83
2023/08/28 06:58:47;;;;;;;3.92;2.17;;;;;;;;;;4989214;28;20342;-84
2023/08/28 07:01:14;;;;;;;5.97;2.17;;;;;;;;;;4984952;28;20035;-82
2023/08/28 07:03:40;;;;;;;3.78;2.22;;;;;;;;;;4966659;28;20084;-82
2023/08/28 07:06:07;;;;;;;4.20;2.45;;;;;;;;;;4990001;28;20609;-80
2023/08/28 07:08:36;;;;;;;6.65;2.35;;;;;;;;;;4986588;28;20520;-83
2023/08/28 07:11:29;;;;;;;4.38;2.63;;;;;;;;;;4975880;28;20783;-80
2023/08/28 07:14:05;;;;;;;8.00;2.50;;;;;;;;;;4991150;28;20069;-82
2023/08/28 07:16:35;;;;;;;4.32;2.72;;;;;;;;;;4983417;28;20047;-83
2023/08/28 07:19:20;;;;;;;9.13;2.95;;;;;;;;;;4940901;28;20054;-84
2023/08/28 07:22:15;;;;;;;7.03;2.75;;;;;;;;;;4941135;28;20630;-82
2023/08/28 07:24:53;;;;;;;6.00;2.75;;;;;;;;;;4934141;29;20040;-85
2023/08/28 07:27:39;;;;;;;5.10;2.30;;;;;;;;;;4900989;29;20047;-81
2023/08/28 07:30:15;;;;;;;5.38;2.45;;;;;;;;;;4942358;28;20039;-83
2023/08/28 07:32:55;;;;;;;2.95;2.17;;;;;;;;;;4959739;28;20041;-80
2023/08/28 07:36:05;;;;;;;5.00;1.85;;;;;;;;;;4956873;28;20034;-80
2023/08/28 07:39:30;;;;;;;5.75;2.05;;;;;;;;;;4946039;28;21153;-83
2023/08/28 07:42:48;;;;;;;6.40;2.13;;;;;;;;;;4972993;28;20058;-80
2023/08/28 07:46:01;;;;;;;4.53;2.10;;;;;;;;;;4983691;28;20058;-84
2023/08/28 07:49:03;;;;;;;4.65;1.92;;;;;;;;;;4973155;28;20046;-83
2023/08/28 07:52:13;;;;;;;4.03;1.85;;;;;;;;;;4959486;28;20038;-80
2023/08/28 07:54:40;;;;;;;4.82;2.25;;;;;;;;;;4971022;28;20476;-84
2023/08/28 07:57:10;;;;;;;2.75;1.88;;;;;;;;;;4983447;28;20051;-83
2023/08/28 08:00:13;;;;;;;3.70;1.92;;;;;;;;;;4945848;28;20110;-82
2023/08/28 08:03:49;;;;;;;3.97;2.15;;;;;;;;;;4873327;28;20055;-84
2023/08/28 08:06:31;;;;;;;3.47;2.22;;;;;;;;;;4907810;29;20051;-83
2023/08/28 08:08:58;;;;;;;5.50;2.17;;;;;;;;;;4935138;28;20047;-82
2023/08/28 08:11:28;;;;;;;10.75;3.55;;;;;;;;;;4898117;29;20106;-81
2023/08/28 08:14:08;;;;;;;3.55;2.28;;;;;;;;;;4911359;29;20055;-79
2023/08/28 08:21:03;;;;;;;3.05;1.90;;;;;;;;;;4839242;29;20040;-82
2023/08/28 08:24:41;;;;;;;3.45;2.00;;;;;;;;;;4875827;29;20590;-83
2023/08/28 08:27:19;;;;;;;6.63;2.20;;;;;;;;;;4889407;29;20048;-81
2023/08/28 08:30:20;;;;;;;3.60;1.63;;;;;;;;;;4942208;28;20058;-81
2023/08/28 08:32:54;;;;;;;3.58;1.85;;;;;;;;;;4895063;29;20048;-80
2023/08/28 08:35:43;;;;;;;3.10;1.85;;;;;;;;;;4953725;28;20178;-81
2023/08/28 08:38:55;;;;;;;5.22;1.83;;;;;;;;;;4962304;28;20038;-81
2023/08/28 08:44:56;;;;;;;6.97;2.10;;;;;;;;;;4985789;28;20030;-80
2023/08/28 08:48:36;;;;;;;4.22;2.00;;;;;;;;;;4897793;28;20064;-81
2023/08/28 08:51:09;;;;;;;4.13;1.63;;;;;;;;;;4912412;28;20494;-82
2023/08/28 08:54:30;;;;;;;4.07;2.00;;;;;;;;;;4925961;28;20047;-81
2023/08/28 08:57:51;;;;;;;4.18;1.77;;;;;;;;;;4906663;28;20047;-81
2023/08/28 09:01:06;;;;;;;3.83;1.65;;;;;;;;;;4878972;28;20589;-81
2023/08/28 09:04:16;;;;;;;;;;;;;;;;;;;;;
2023/08/28 09:07:23;;;;;;;3.40;1.65;;;;;;;;;;4912393;28;20063;-78
2023/08/28 09:11:08;;;;;;;2.97;1.60;;;;;;;;;;4911121;28;20055;-81
2023/08/28 09:26:43;;;;;;;4.97;2.00;;;;;;;;;;4848686;29;20049;-80
2023/08/28 09:30:27;;;;;;;6.70;2.00;;;;;;;;;;4896681;23;20111;31
2023/08/28 09:32:56;;;;;;;2.92;1.98;;;;;;;;;;4948144;28;20454;-81
2023/08/28 09:35:24;;;;;;;6.00;2.10;;;;;;;;;;4932446;29;20044;-81
2023/08/28 09:37:58;;;;;;;2.50;1.70;;;;;;;;;;4939417;29;20086;-80
2023/08/28 09:40:25;;;;;;;5.78;1.67;;;;;;;;;;4933333;29;20498;-80
2023/08/28 09:42:53;;;;;;;3.72;1.67;;;;;;;;;;4943378;28;20040;-80
2023/08/28 09:45:19;;;;;;;3.08;1.90;;;;;;;;;;4942700;29;20039;-79
2023/08/28 09:47:50;;;;;;;2.33;1.50;;;;;;;;;;4940875;29;20590;-80
2023/08/28 09:50:22;;;;;;;2.50;1.85;;;;;;;;;;4932491;29;20051;-80
2023/08/28 09:52:49;;;;;;;6.82;2.45;;;;;;;;;;4927088;29;20207;-80
2023/08/28 09:55:15;;;;;;;2.47;1.90;;;;;;;;;;4944059;29;20043;-79
2023/08/28 09:57:42;;;;;;;5.72;2.30;;;;;;;;;;4928103;29;20075;-80
2023/08/28 10:00:11;;;;;;;4.47;2.47;;;;;;;;;;4915803;29;20064;-80
2023/08/28 10:02:38;;;;;;;3.85;2.33;;;;;;;;;;4928063;29;20048;-79
2023/08/28 10:05:05;;;;;;;3.83;2.38;;;;;;;;;;4918045;29;20051;-80
2023/08/28 10:07:32;;;;;;;3.47;2.40;;;;;;;;;;4915864;29;20446;-80
2023/08/28 10:10:00;;;;;;;4.32;2.25;;;;;;;;;;4931804;29;20201;-78
2023/08/28 10:12:29;;;;;;;4.68;2.45;;;;;;;;;;4932136;29;20059;-79
2023/08/28 10:14:56;;;;;;;3.45;2.22;;;;;;;;;;4914071;29;20032;-79
2023/08/28 10:17:24;;;;;;;3.17;1.98;;;;;;;;;;4915136;29;20052;-81
2023/08/28 10:19:50;;;;;;;2.67;1.80;;;;;;;;;;4915779;29;20423;-79
2023/08/28 10:22:17;;;;;;;6.63;2.05;;;;;;;;;;4914075;29;20051;-81
2023/08/28 10:24:45;;;;;;;4.68;2.00;;;;;;;;;;4913182;29;20100;-80
2023/08/28 10:27:14;;;;;;;4.50;2.40;;;;;;;;;;4899694;29;20043;-82
2023/08/28 10:29:41;;;;;;;7.80;2.13;;;;;;;;;;4917770;29;20044;-81
2023/08/28 10:32:08;;;;;;;5.82;2.55;;;;;;;;;;4909865;29;20531;-81
2023/08/28 10:34:39;;;;;;;3.65;2.13;;;;;;;;;;4919730;29;20070;-80
2023/08/28 10:37:07;;;;;;;4.70;1.83;;;;;;;;;;4916820;29;20048;-80
2023/08/28 10:39:49;;;;;;;8.40;2.90;;;;;;;;;;4919793;29;20044;-80
2023/08/28 10:42:19;;;;;;;4.55;2.47;;;;;;;;;;4914312;29;20044;-81
2023/08/28 10:44:47;;;;;;;3.42;2.05;;;;;;;;;;4925903;29;20036;-81
2023/08/28 10:47:18;;;;;;;4.05;2.30;;;;;;;;;;4944744;28;20044;-80
2023/08/28 10:49:45;;;;;;;5.25;2.50;;;;;;;;;;4928991;29;20064;-81
2023/08/28 10:52:12;;;;;;;4.07;2.10;;;;;;;;;;4932755;29;20055;-81
2023/08/28 10:54:45;;;;;;;4.38;2.20;;;;;;;;;;4899500;29;20068;-79
2023/08/28 10:57:27;;;;;;;5.15;2.47;;;;;;;;;;4913549;29;20063;-80
2023/08/28 10:59:54;;;;;;;5.50;2.50;;;;;;;;;;4923482;29;20075;-79
2023/08/28 11:02:21;;;;;;;4.07;2.22;;;;;;;;;;4906201;29;20052;-82
2023/08/28 11:04:48;;;;;;;4.35;2.25;;;;;;;;;;4914158;29;20044;-81
2023/08/28 11:07:21;;;;;;;2.72;1.92;;;;;;;;;;4937712;29;20043;-80
2023/08/28 11:09:48;;;;;;;5.15;2.83;;;;;;;;;;4907191;29;20843;-80
2023/08/28 11:12:18;;;;;;;6.05;2.72;;;;;;;;;;4925393;29;20051;-81
2023/08/28 11:14:50;;;;;;;9.15;2.47;;;;;;;;;;4936684;29;20091;-82
2023/08/28 11:17:20;;;;;;;6.37;2.50;;;;;;;;;;4930215;29;20040;-82
2023/08/28 11:19:56;;;;;;;4.35;2.28;;;;;;;;;;4904811;29;20292;-82
2023/08/28 11:22:33;;;;;;;4.32;2.33;;;;;;;;;;4930973;29;20058;-80
2023/08/28 11:25:07;;;;;;;6.07;2.53;;;;;;;;;;4943410;29;20791;-80
2023/08/28 11:27:36;;;;;;;9.63;2.80;;;;;;;;;;4924784;29;20056;-80
2023/08/28 11:30:07;;;;;;;6.07;3.22;;;;;;;;;;4927733;29;20044;-79
2023/08/28 11:32:35;;;;;;;6.00;3.30;;;;;;;;;;4922375;29;20110;-80
2023/08/28 11:35:04;;;;;;;6.72;3.50;;;;;;;;;;4918536;29;20052;-81
2023/08/28 11:37:39;;;;;;;6.18;3.65;;;;;;;;;;4930732;29;20056;-80
2023/08/28 11:40:09;;;;;;;5.83;3.73;;;;;;;;;;4934372;28;20075;-81
2023/08/28 11:42:37;;;;;;;6.20;4.25;;;;;;;;;;4925672;29;20106;-80
2023/08/28 11:45:06;;;;;;;10.65;4.22;;;;;;;;;;4914320;29;20052;-79
2023/08/28 11:47:34;;;;;;;10.75;4.80;;;;;;;;;;4919408;29;20628;-78
2023/08/28 11:50:03;;;;;;;7.50;4.45;;;;;;;;;;4913154;29;20109;-79
2023/08/28 11:52:30;;;;;;;14.35;5.28;;;;;;;;;;4926136;29;20059;-78
2023/08/28 11:55:04;;;;;;;7.68;3.95;;;;;;;;;;4930516;29;20051;-76
2023/08/28 11:57:32;;;;;;;9.82;4.75;;;;;;;;;;4925312;29;20048;-78
2023/08/28 12:00:04;;;;;;;9.35;4.40;;;;;;;;;;4916095;29;20051;-79
2023/08/28 12:02:41;;;;;;;9.63;4.18;;;;;;;;;;4934589;29;20122;-79
2023/08/28 12:05:08;;;;;;;7.20;3.88;;;;;;;;;;4950319;29;20066;-79
2023/08/28 12:07:35;;;;;;;7.72;3.97;;;;;;;;;;4918386;29;20310;-79
2023/08/28 12:10:03;;;;;;;7.70;3.95;;;;;;;;;;4934045;28;20074;-80
2023/08/28 12:12:31;;;;;;;4.82;3.17;;;;;;;;;;4903197;29;20101;-77
2023/08/28 12:14:58;;;;;;;4.45;2.40;;;;;;;;;;4949397;28;20094;-80
2023/08/28 12:17:27;;;;;;;7.45;3.15;;;;;;;;;;4920742;29;20336;-80
2023/08/28 12:19:54;;;;;;;5.15;2.97;;;;;;;;;;4923323;29;20056;-79
2023/08/28 12:22:21;;;;;;;3.35;1.65;;;;;;;;;;4950542;29;20154;-80
2023/08/28 12:24:49;;;;;;;3.22;1.95;;;;;;;;;;4936766;29;20642;-79
2023/08/28 12:27:16;;;;;;;2.30;1.42;;;;;;;;;;4916039;29;20045;-78
2023/08/28 12:29:43;;;;;;;5.10;1.50;;;;;;;;;;4954893;28;20111;-80
2023/08/28 12:32:17;;;;;;;3.72;1.58;;;;;;;;;;4933768;29;20044;-78
2023/08/28 12:34:45;;;;;;;3.05;1.67;;;;;;;;;;4930055;29;20045;-77
2023/08/28 12:37:13;;;;;;;5.93;3.00;;;;;;;;;;4893668;29;20526;-79
2023/08/28 12:39:49;;;;;;;5.03;3.03;;;;;;;;;;4928979;29;20099;-80
2023/08/28 12:42:18;;;;;;;4.63;2.72;;;;;;;;;;4950014;29;20047;-79
2023/08/28 12:44:45;;;;;;;3.53;2.13;;;;;;;;;;4947583;29;20052;-79
2023/08/28 12:47:12;;;;;;;3.10;1.80;;;;;;;;;;4930755;29;20059;-79
2023/08/28 12:49:42;;;;;;;3.22;1.98;;;;;;;;;;4922359;29;20036;-78
2023/08/28 12:52:09;;;;;;;6.50;2.08;;;;;;;;;;4928774;29;20330;-79
2023/08/28 12:54:36;;;;;;;3.45;2.17;;;;;;;;;;4926932;29;20051;-79
2023/08/28 12:57:04;;;;;;;3.92;1.98;;;;;;;;;;4915518;29;20048;-79
2023/08/28 12:59:31;;;;;;;3.00;2.15;;;;;;;;;;4924910;29;20048;-79
2023/08/28 13:02:01;;;;;;;3.72;2.70;;;;;;;;;;4928087;29;20067;-79
2023/08/28 13:04:27;;;;;;;6.63;2.83;;;;;;;;;;4935720;29;20047;-79
2023/08/28 13:06:54;;;;;;;6.32;2.80;;;;;;;;;;4901219;29;20431;-78
2023/08/28 13:09:22;;;;;;;3.00;2.20;;;;;;;;;;4929527;29;20058;-77
2023/08/28 13:11:49;;;;;;;3.72;1.88;;;;;;;;;;4914901;29;20072;-79
2023/08/28 13:14:16;;;;;;;2.70;1.77;;;;;;;;;;4930971;29;20061;-79
2023/08/28 13:16:42;;;;;;;4.88;2.08;;;;;;;;;;4913632;29;20065;-79
2023/08/28 13:19:11;;;;;;;4.72;2.20;;;;;;;;;;4936982;29;20043;-77
2023/08/28 13:21:38;;;;;;;2.45;1.70;;;;;;;;;;4934709;29;20044;-77
2023/08/28 13:24:05;;;;;;;4.70;2.30;;;;;;;;;;4951394;29;20055;-79
2023/08/28 13:26:32;;;;;;;4.13;2.30;;;;;;;;;;4943791;29;20076;-79
2023/08/28 13:28:59;;;;;;;3.40;2.00;;;;;;;;;;4935590;29;20107;-78
2023/08/28 13:31:26;;;;;;;5.13;2.45;;;;;;;;;;4936206;29;20059;-78
2023/08/28 13:33:53;;;;;;;2.78;2.10;;;;;;;;;;4926175;29;20040;-78
2023/08/28 13:36:20;;;;;;;7.07;2.65;;;;;;;;;;4938216;29;20048;-77
2023/08/28 13:38:48;;;;;;;2.90;1.98;;;;;;;;;;4914732;29;20059;-77
2023/08/28 13:41:15;;;;;;;2.03;1.60;;;;;;;;;;4939272;29;20186;-82
2023/08/28 13:43:42;;;;;;;5.75;2.20;;;;;;;;;;4927017;29;20063;-80
2023/08/28 13:46:08;;;;;;;4.38;1.95;;;;;;;;;;4920988;29;20067;-79
2023/08/28 13:48:36;;;;;;;4.38;1.92;;;;;;;;;;4923406;29;20052;-81
2023/08/28 13:51:02;;;;;;;3.72;1.75;;;;;;;;;;4934134;29;20511;-81
2023/08/28 13:53:32;;;;;;;3.78;1.90;;;;;;;;;;4915067;29;20070;-81
2023/08/28 13:55:59;;;;;;;2.72;2.17;;;;;;;;;;4916965;29;20048;-80
2023/08/28 13:58:26;;;;;;;6.18;2.58;;;;;;;;;;4938505;29;20058;-79
2023/08/28 14:00:57;;;;;;;3.88;2.08;;;;;;;;;;4927591;29;20518;-79
2023/08/28 14:03:25;;;;;;;4.63;2.33;;;;;;;;;;4908613;29;20434;-82
2023/08/28 14:05:52;;;;;;;4.28;2.42;;;;;;;;;;4918370;29;20052;-83
2023/08/28 14:08:19;;;;;;;4.65;2.22;;;;;;;;;;4927796;29;20048;-81
2023/08/28 14:10:46;;;;;;;2.78;2.38;;;;;;;;;;4914295;29;20051;-83
2023/08/28 14:13:13;;;;;;;3.28;2.15;;;;;;;;;;4967997;28;20059;-81
2023/08/28 14:15:41;;;;;;;3.15;2.30;;;;;;;;;;4943916;29;20047;-82
2023/08/28 14:18:07;;;;;;;4.57;2.85;;;;;;;;;;4934737;29;20028;-82
2023/08/28 14:20:34;;;;;;;3.53;2.55;;;;;;;;;;4934593;29;20063;-80
2023/08/28 14:23:02;;;;;;;5.00;2.72;;;;;;;;;;4931062;29;20049;-81
2023/08/28 14:25:30;;;;;;;4.05;2.75;;;;;;;;;;4948054;29;20055;-83
2023/08/28 14:27:57;;;;;;;6.40;2.20;;;;;;;;;;4927822;29;20044;-82
2023/08/28 14:30:37;;;;;;;5.25;2.80;;;;;;;;;;4933451;29;20130;-82
2023/08/28 14:33:04;;;;;;;5.72;2.38;;;;;;;;;;4946913;29;20047;-83
2023/08/28 14:35:31;;;;;;;3.45;2.03;;;;;;;;;;4931129;29;20056;-83
2023/08/28 14:37:58;;;;;;;4.90;2.17;;;;;;;;;;4924235;29;20107;-83
2023/08/28 14:40:25;;;;;;;2.65;2.00;;;;;;;;;;4922549;29;20051;-83
2023/08/28 14:43:10;;;;;;;3.80;2.10;;;;;;;;;;4935542;28;20048;-81
2023/08/28 14:45:36;;;;;;;3.22;2.10;;;;;;;;;;4941298;28;20491;-82
2023/08/28 14:48:04;;;;;;;2.53;1.77;;;;;;;;;;4931318;29;20044;-82
2023/08/28 14:50:32;;;;;;;3.70;2.13;;;;;;;;;;4939481;29;20059;-82
2023/08/28 14:52:58;;;;;;;4.45;2.25;;;;;;;;;;4941203;29;20467;-82
2023/08/28 14:55:25;;;;;;;3.28;2.17;;;;;;;;;;4942471;29;20162;-83
2023/08/28 14:57:52;;;;;;;5.78;2.95;;;;;;;;;;4940716;29;20050;-82
2023/08/28 15:00:19;;;;;;;3.38;2.42;;;;;;;;;;4932541;29;20132;-82
2023/08/28 15:02:46;;;;;;;3.70;2.35;;;;;;;;;;4942590;29;20150;-82
2023/08/28 15:05:13;;;;;;;3.05;2.20;;;;;;;;;;4941815;29;20040;-81
2023/08/28 15:07:40;;;;;;;4.18;2.67;;;;;;;;;;4922605;29;20056;-81
2023/08/28 15:10:07;;;;;;;5.60;2.88;;;;;;;;;;4927705;29;20083;-82
2023/08/28 15:12:34;;;;;;;4.88;2.70;;;;;;;;;;4925211;29;20055;-83
2023/08/28 15:15:01;;;;;;;4.43;2.92;;;;;;;;;;4921872;29;20168;-83
2023/08/28 15:17:28;;;;;;;6.35;2.63;;;;;;;;;;4941505;29;20062;-83
2023/08/28 15:19:54;;;;;;;3.58;2.42;;;;;;;;;;4933954;29;20052;-84
2023/08/28 15:22:21;;;;;;;5.50;2.90;;;;;;;;;;4925618;29;20577;-82
2023/08/28 15:24:48;;;;;;;4.22;2.60;;;;;;;;;;4942081;29;20050;-83
2023/08/28 15:27:15;;;;;;;3.83;2.72;;;;;;;;;;4918762;29;20048;-81
2023/08/28 15:29:42;;;;;;;2.85;2.55;;;;;;;;;;4913050;29;20048;-80
2023/08/28 15:32:08;;;;;;;5.47;2.60;;;;;;;;;;4934157;29;20048;-82
2023/08/28 15:34:35;;;;;;;4.05;2.40;;;;;;;;;;4925648;29;20071;-82
2023/08/28 15:37:02;;;;;;;3.80;2.38;;;;;;;;;;4946431;28;20070;-81
2023/08/28 15:39:29;;;;;;;4.28;2.35;;;;;;;;;;4934350;29;20064;-83
2023/08/28 15:41:55;;;;;;;4.80;2.70;;;;;;;;;;4932033;29;20079;-82
2023/08/28 15:44:22;;;;;;;5.10;2.50;;;;;;;;;;4915908;29;20048;-82